Flight Track Log - Related Links

Times and Time Zones

All times are in EDT time to prevent confusion due to time zone crossing. See the EJA947 flight status page for this flight to view local times or setup timezone preferences in your user account.

Time Position Orientation Groundspeed Altitude Reporting Facility
EDT Latitude Longitude Course Direction KTS MPH feet Rate Location/Type
Sun 12:13:50 PM 41.3117 -72.8683 204° Southwest 222 255 2,100  Level Boston Center
Sun 12:14:49 PM 41.2933 -72.7881 107° East 196 226 5,000 2,975 Climbing Boston Center
Sun 12:15:49 PM 41.2308 -72.7547 158° South 220 253 8,000 2,450 Climbing Boston Center
Sun 12:16:49 PM 41.1475 -72.7131 159° South 266 306 9,900 950 Climbing Boston Center
Sun 12:17:49 PM 41.0600 -72.6822 165° South 308 354 9,900 397 Level Boston Center
Sun 12:18:50 PM 40.9603 -72.6436 164° South 347 399 10,700 492 Climbing Boston Center
Sun 12:19:00 PM 40.3695 -73.4101 204° Southwest  Level Estimated
Sun 12:19:51 PM 40.8603 -72.5939 159° South 371 427 10,900  Level Boston Center
Sun 12:20:49 PM 40.7581 -72.5606 166° South 382 440 12,300 1,831 Climbing Boston Center
Sun 12:21:49 PM 40.6622 -72.6181 204° Southwest 347 399 14,500 2,200 Climbing Boston Center
Sun 12:22:49 PM 40.5892 -72.7053 222° Southwest 333 383 16,700 2,083 Climbing Boston Center
Sun 12:23:50 PM 40.5181 -72.7894 222° Southwest 346 398 18,700 1,820 Climbing Boston Center
Sun 12:24:51 PM 40.4511 -72.8656 221° Southwest 351 404 20,400 1,884 Climbing Boston Center
Sun 12:25:51 PM 40.3717 -72.9522 220° Southwest 363 418 22,500 2,085 Climbing Boston Center
Sun 12:26:49 PM 40.2939 -73.0439 222° Southwest 368 423 24,500 1,866 Climbing Boston Center
Sun 12:27:50 PM 40.2122 -73.1383 221° Southwest 384 442 26,200 1,412 Climbing Boston Center
Sun 12:28:48 PM 40.1217 -73.2392 220° Southwest 392 451 27,300 1,373 Climbing Washington Center
Sun 12:29:48 PM 40.0400 -73.3342 222° Southwest 387 445 28,900 1,800 Climbing Washington Center
Sun 12:30:48 PM 39.9583 -73.4233 220° Southwest 404 465 30,900 2,150 Climbing Washington Center
Sun 12:31:48 PM 39.8706 -73.5181 220° Southwest 411 473 33,200 2,350 Climbing Washington Center
Sun 12:32:48 PM 39.7867 -73.6122 221° Southwest 411 473 35,600 2,000 Climbing Washington Center
Sun 12:33:48 PM 39.6967 -73.7119 220° Southwest 406 467 37,200 1,300 Climbing Washington Center
Sun 12:34:48 PM 39.6106 -73.8083 221° Southwest 406 467 38,200 1,000 Climbing Washington Center
Sun 12:35:48 PM 39.5203 -73.9047 219° Southwest 411 473 39,200 1,000 Climbing Washington Center
Sun 12:36:48 PM 39.4300 -74.0064 221° Southwest 427 491 40,200 850 Climbing Washington Center
Sun 12:37:48 PM 39.3417 -74.1022 220° Southwest 426 490 40,900 600 Climbing Washington Center
Sun 12:38:48 PM 39.2489 -74.2006 219° Southwest 426 490 41,400 500 Climbing Washington Center
Sun 12:39:48 PM 39.1564 -74.3014 220° Southwest 433 498 41,900 450 Climbing Washington Center
Sun 12:40:48 PM 39.0636 -74.4019 220° Southwest 433 498 42,300 350 Climbing Washington Center
Sun 12:41:48 PM 38.9728 -74.5022 221° Southwest 428 493 42,600 300 Climbing Washington Center
Sun 12:42:48 PM 38.8800 -74.5997 219° Southwest 428 493 42,900 200 Climbing Washington Center
Sun 12:43:48 PM 38.7869 -74.6994 220° Southwest 428 493 43,000 50 Climbing Washington Center
Sun 12:44:48 PM 38.6917 -74.8017 220° Southwest 433 498 43,000  Level Washington Center
Sun 12:45:48 PM 38.5964 -74.8983 218° Southwest 441 507 43,000  Level Washington Center
Sun 12:46:48 PM 38.5011 -75.0000 220° Southwest 448 516 43,000  Level Washington Center
Sun 12:47:48 PM 38.4078 -75.0961 219° Southwest 448 516 43,000  Level Washington Center
Sun 12:48:48 PM 38.3122 -75.1975 220° Southwest 448 516 43,000  Level Washington Center
Sun 12:49:48 PM 38.2311 -75.2931 223° Southwest 448 516 43,000  Level Washington Center
Sun 12:50:48 PM 38.1186 -75.3675 208° Southwest 453 521 43,000  Level Washington Center
Sun 12:51:48 PM 38.0042 -75.4389 206° Southwest 453 521 43,000  Level Washington Center
Sun 12:52:48 PM 37.8917 -75.5075 206° Southwest 458 527 43,000  Level Washington Center
Sun 12:53:48 PM 37.7789 -75.5761 206° Southwest 453 521 43,000  Level Washington Center
Sun 12:54:48 PM 37.6664 -75.6442 206° Southwest 453 521 43,000  Level Washington Center
Sun 12:55:48 PM 37.5536 -75.7150 206° Southwest 453 521 43,000  Level Washington Center
Sun 12:56:48 PM 37.4389 -75.7828 205° Southwest 448 516 43,000  Level Washington Center
Sun 12:57:48 PM 37.3239 -75.8531 206° Southwest 448 516 43,000  Level Washington Center
Sun 12:58:48 PM 37.2111 -75.9206 205° Southwest 448 516 43,000  Level Washington Center
Sun 12:59:48 PM 37.0942 -75.9903 205° Southwest 448 516 43,000  Level Washington Center
Sun 01:00:48 PM 36.9667 -76.0650 205° Southwest 455 524 43,000  Level Washington Center
Sun 01:01:48 PM 36.8536 -76.1317 205° Southwest 460 529 43,000  Level Washington Center
Sun 01:02:48 PM 36.7386 -76.2011 206° Southwest 460 529 43,000  Level Washington Center
Sun 01:03:48 PM 36.6256 -76.2700 206° Southwest 465 535 43,000  Level Washington Center
Sun 01:04:48 PM 36.5083 -76.3389 205° Southwest 459 528 43,000  Level Washington Center
Sun 01:05:48 PM 36.3953 -76.4047 205° Southwest 459 528 43,000  Level Washington Center
Sun 01:06:48 PM 36.2842 -76.4681 205° Southwest 453 521 43,000  Level Washington Center
Sun 01:07:48 PM 36.1692 -76.5336 205° Southwest 453 521 43,000  Level Washington Center
Sun 01:08:48 PM 36.0600 -76.6017 207° Southwest 443 510 43,000  Level Washington Center
Sun 01:09:48 PM 35.9489 -76.6644 205° Southwest 443 510 43,000  Level Washington Center
Sun 01:10:48 PM 35.8356 -76.7294 205° Southwest 443 510 43,000  Level Washington Center
Sun 01:11:48 PM 35.7222 -76.7894 203° Southwest 443 510 43,000  Level Washington Center
Sun 01:12:48 PM 35.6133 -76.8311 197° South 448 516 43,000  Level Washington Center
Sun 01:13:48 PM 35.4981 -76.8778 198° South 448 516 43,000  Level Washington Center
Sun 01:14:48 PM 35.3786 -76.9244 198° South 448 516 43,000  Level Washington Center
Sun 01:15:48 PM 35.2550 -76.9733 198° South 454 522 43,000  Level Washington Center
Sun 01:16:48 PM 35.1292 -77.0219 198° South 465 535 43,000  Level Washington Center
Sun 01:17:48 PM 35.0078 -77.0731 199° South 465 535 43,000  Level Washington Center
Sun 01:18:48 PM 34.8797 -77.1186 196° South 470 541 43,000  Level Washington Center
Sun 01:19:48 PM 34.7561 -77.1719 200° South 470 541 43,000  Level Washington Center
Sun 01:20:48 PM 34.6322 -77.2175 197° South 470 541 43,000  Level Washington Center
Sun 01:21:48 PM 34.5044 -77.2681 198° South 475 547 43,000  Level Washington Center
Sun 01:22:48 PM 34.3783 -77.3183 198° South 475 547 43,000  Level Washington Center
Sun 01:23:48 PM 34.2464 -77.3658 197° South 488 562 43,000  Level Washington Center
Sun 01:24:48 PM 34.1206 -77.4133 197° South 488 562 43,000  Level Washington Center
Sun 01:25:19 PM 34.0419 -77.4419 197° South 484 557 43,000  Level Jacksonville Center
Sun 01:26:19 PM 33.9086 -77.4928 198° South 484 557 43,000  Level Jacksonville Center
Sun 01:27:19 PM 33.7794 -77.5433 198° South 490 564 43,000  Level Jacksonville Center
Sun 01:28:19 PM 33.6500 -77.5911 197° South 490 564 43,000  Level Jacksonville Center
Sun 01:29:19 PM 33.5186 -77.6436 198° South 490 564 43,000  Level Jacksonville Center
Sun 01:30:19 PM 33.3889 -77.6886 196° South 490 564 43,000  Level Jacksonville Center
Sun 01:31:19 PM 33.2575 -77.7386 198° South 490 564 43,000  Level Jacksonville Center
Sun 01:32:19 PM 33.1281 -77.7883 198° South 490 564 43,000  Level Jacksonville Center
Sun 01:33:19 PM 32.9967 -77.8403 198° South 490 564 43,000  Level Jacksonville Center
Sun 01:34:19 PM 32.8669 -77.8872 197° South 490 564 43,000  Level Jacksonville Center
Sun 01:35:19 PM 32.7353 -77.9339 197° South 490 564 43,000  Level Jacksonville Center
Sun 01:36:19 PM 32.6036 -77.9856 198° South 490 564 43,000  Level Jacksonville Center
Sun 01:37:19 PM 32.4739 -78.0294 196° South 490 564 43,000  Level Jacksonville Center
Sun 01:38:19 PM 32.3442 -78.0758 197° South 490 564 43,000  Level Jacksonville Center
Sun 01:39:19 PM 32.2167 -78.1242 198° South 490 564 43,000  Level Jacksonville Center
Sun 01:40:19 PM 32.0850 -78.1753 198° South 490 564 43,000  Level Jacksonville Center
Sun 01:41:19 PM 31.9569 -78.2161 195° South 490 564 43,000  Level Jacksonville Center
Sun 01:42:19 PM 31.8461 -78.2608 199° South 485 558 43,000  Level Jacksonville Center
Sun 01:43:19 PM 31.7183 -78.3086 198° South 485 558 43,000  Level Jacksonville Center
Sun 01:44:19 PM 31.5925 -78.3539 197° South 485 558 43,000  Level Jacksonville Center
Sun 01:45:19 PM 31.4647 -78.3992 197° South 480 552 43,000  Level Jacksonville Center
Sun 01:46:19 PM 31.3411 -78.4439 197° South 474 545 43,000  Level Jacksonville Center
Sun 01:47:19 PM 31.2114 -78.4939 198° South 474 545 43,000  Level Jacksonville Center
Sun 01:48:19 PM 31.0856 -78.5386 197° South 474 545 43,000  Level Jacksonville Center
Sun 01:49:19 PM 30.9514 -78.5833 196° South 468 539 43,000  Level Jacksonville Center
Sun 01:50:19 PM 30.8319 -78.6300 199° South 464 534 43,000  Level Jacksonville Center
Sun 01:51:19 PM 30.6997 -78.6722 195° South 469 540 43,000  Level Jacksonville Center
Sun 01:52:56 PM 30.5117 -78.7406 197° South 459 528 43,000  Level Miami Center
Sun 01:53:56 PM 30.3883 -78.7839 197° South 459 528 43,000  Level Miami Center
Sun 01:54:56 PM 30.2647 -78.8275 197° South 462 532 43,000  Level Miami Center
Sun 01:55:56 PM 30.1431 -78.8708 197° South 462 532 43,000  Level Miami Center
Sun 01:56:56 PM 30.0217 -78.9139 197° South 459 528 43,000  Level Miami Center
Sun 01:57:55 PM 29.9167 -78.9575 200° South 453 521 43,000  Level Miami Center
Sun 01:58:55 PM 29.7933 -78.9908 193° South 459 528 43,000  Level Miami Center
Sun 01:59:55 PM 29.6697 -79.0219 192° South 459 528 43,000  Level Miami Center
Sun 02:00:55 PM 29.5400 -79.0456 189° South 465 535 43,000  Level Miami Center
Sun 02:01:55 PM 29.4106 -79.0644 187° South 471 542 43,000  Level Miami Center
Sun 02:02:55 PM 29.2869 -79.0953 192° South 466 536 43,000  Level Miami Center
Sun 02:03:55 PM 29.1406 -79.1161 187° South 472 543 43,000  Level Miami Center
Sun 02:04:55 PM 29.0089 -79.1394 189° South 472 543 43,000 -350 Level Miami Center
Sun 02:05:55 PM 28.8811 -79.1628 189° South 472 543 42,300 -1,200 Descending Miami Center
Sun 02:06:55 PM 28.7533 -79.1864 189° South 472 543 40,600 350 Descending Miami Center
Sun 02:07:55 PM 28.6258 -79.2097 189° South 467 537 43,000 -1,800 Climbing Miami Center
Sun 02:08:55 PM 28.4897 -79.2350 189° South 473 544 37,000 -4,250 Descending Miami Center
Sun 02:09:55 PM 28.3578 -79.2583 189° South 484 557 34,500 -3,200 Descending Miami Center
Sun 02:10:55 PM 28.2322 -79.2814 189° South 484 557 30,600 -4,150 Descending Miami Center
Sun 02:11:55 PM 28.1025 -79.3047 189° South 467 537 26,200 -3,700 Descending Miami Center
Sun 02:12:55 PM 27.9789 -79.3278 189° South 467 537 23,200 -2,950 Descending Miami Center
Sun 02:13:55 PM 27.8594 -79.3511 190° South 448 516 20,300 -2,600 Descending Miami Center
Sun 02:14:55 PM 27.7417 -79.3931 197° South 448 516 18,000 -2,050 Descending Miami Center
Sun 02:15:55 PM 27.6486 -79.4636 214° Southwest 418 481 16,200 -1,650 Descending Miami Center
Sun 02:16:55 PM 27.5808 -79.5231 218° Southwest 375 432 14,700 -1,450 Descending Miami Center
Sun 02:17:55 PM 27.5128 -79.5800 217° Southwest 325 374 13,300 -1,550 Descending Miami Center
Sun 02:18:55 PM 27.4344 -79.6389 214° Southwest 308 354 11,600 -1,550 Descending Miami Center
Sun 02:19:55 PM 27.3728 -79.6914 217° Southwest 294 338 10,200 -1,300 Descending Miami Center
Sun 02:20:55 PM 27.3072 -79.7436 215° Southwest 294 338 9,000 -1,100 Descending Miami Center
Sun 02:21:55 PM 27.2497 -79.7889 215° Southwest 287 330 8,000 -550 Descending Miami Center
Sun 02:22:55 PM 27.1861 -79.8386 215° Southwest 287 330 7,900  Descending Miami Center
Sun 02:23:55 PM 27.1119 -79.8903 212° Southwest 293 337 8,000 -500 Climbing Miami Center
Sun 02:24:55 PM 27.0464 -79.9306 209° Southwest 282 325 6,900 -1,150 Descending Miami Center
Sun 02:25:55 PM 26.9789 -79.9683 207° Southwest 282 325 5,700 -950 Descending Miami Center
Sun 02:26:55 PM 26.9236 -80.0111 215° Southwest 277 319 5,000 -350 Descending Miami Center
Sun 02:27:55 PM 26.8642 -80.0586 215° Southwest 272 313 5,000  Level Miami Center
Sun 02:28:55 PM 26.7861 -80.0867 198° South 265 305 5,000  Level Miami Center
Sun 02:29:55 PM 26.7233 -80.0989 190° South 260 299 5,000  Level Miami Center
Sun 02:31:00 PM 26.5963 -80.1167 180° South  Level FlightAware Approximate
Sun 02:38:00 PM 26.3785 -80.1077 180° South  Level Estimated
Sun 02:39:00 PM 26.3785 -80.1077 180° South  Level Estimated
Sun 02:40:00 PM 26.3785 -80.1077 180° South  Level Estimated
Sun 02:41:00 PM 26.3785 -80.1077 180° South  Level Estimated
Sun 02:42:00 PM 26.3785 -80.1077 180° South  Level Estimated
Sun 02:43:00 PM 26.3785 -80.1077 180° South  Level Estimated
Sun 02:44:00 PM 26.3785 -80.1077 180° South  Level Estimated
Sun 02:45:00 PM 26.3785 -80.1077 180° South  Level Estimated
Sun 02:46:00 PM 26.3785 -80.1077 180° South  Level Estimated

Login

Don't have an account? Register now (free) for customized features, flight alerts, and more!